createdAt,value
2018-07-07T00:01:50.701Z,5.10
2018-07-07T00:04:19.944Z,4.80
2018-07-07T00:06:49.168Z,4.47
2018-07-07T00:09:18.412Z,4.80
2018-07-07T00:11:47.771Z,5.90
2018-07-07T00:14:17.012Z,4.90
2018-07-07T00:16:46.264Z,5.30
2018-07-07T00:19:15.543Z,5.43
2018-07-07T00:21:44.844Z,4.80
2018-07-07T00:24:14.269Z,4.90
2018-07-07T00:26:43.516Z,4.93
2018-07-07T00:29:12.796Z,4.57
2018-07-07T00:31:42.150Z,5.10
2018-07-07T00:34:11.389Z,4.93
2018-07-07T00:36:40.080Z,5.00
2018-07-07T00:39:09.399Z,5.27
2018-07-07T00:41:38.727Z,4.90
2018-07-07T00:44:08.000Z,5.80
2018-07-07T00:46:37.619Z,5.50
2018-07-07T00:49:06.872Z,6.00
2018-07-07T00:51:36.140Z,6.00
2018-07-07T00:54:05.381Z,5.73
2018-07-07T00:56:34.735Z,5.97
2018-07-07T00:59:04.036Z,6.17
2018-07-07T01:01:33.335Z,5.23
2018-07-07T01:04:02.645Z,5.67
2018-07-07T01:06:33.816Z,5.43
2018-07-07T01:09:03.160Z,5.43
2018-07-07T01:11:32.478Z,5.50
2018-07-07T01:14:01.716Z,5.03
2018-07-07T01:16:31.029Z,5.33
2018-07-07T01:18:59.754Z,5.73
2018-07-07T01:21:29.076Z,5.80
2018-07-07T01:23:58.296Z,5.60
2018-07-07T01:26:27.644Z,4.53
2018-07-07T01:28:56.896Z,5.27
2018-07-07T01:31:26.144Z,5.50
2018-07-07T01:33:55.374Z,5.57
2018-07-07T01:36:24.677Z,5.23
2018-07-07T01:38:53.899Z,5.57
2018-07-07T01:41:23.177Z,6.00
2018-07-07T01:43:52.477Z,5.73
2018-07-07T01:46:21.775Z,5.30
2018-07-07T01:48:51.072Z,5.90
2018-07-07T01:51:20.368Z,6.30
2018-07-07T01:53:49.619Z,5.57
2018-07-07T01:56:18.867Z,5.90
2018-07-07T01:58:48.102Z,5.97
2018-07-07T02:01:17.373Z,6.57
2018-07-07T02:03:46.601Z,6.00
2018-07-07T02:06:15.864Z,6.17
2018-07-07T02:08:45.173Z,5.80
2018-07-07T02:11:14.440Z,6.27
2018-07-07T02:13:43.668Z,5.80
2018-07-07T02:16:12.941Z,5.63
2018-07-07T02:18:42.212Z,5.67
2018-07-07T02:21:12.523Z,5.90
2018-07-07T02:23:41.760Z,6.17
2018-07-07T02:26:11.094Z,5.73
2018-07-07T02:28:40.312Z,5.63
2018-07-07T02:31:09.560Z,6.33
2018-07-07T02:33:38.789Z,5.67
2018-07-07T02:36:08.084Z,5.13
2018-07-07T02:38:37.320Z,5.60
2018-07-07T02:41:06.685Z,5.57
2018-07-07T02:43:35.898Z,5.07
2018-07-07T02:46:05.185Z,5.17
2018-07-07T02:48:34.407Z,4.77
2018-07-07T02:51:03.697Z,5.33
2018-07-07T02:53:32.960Z,6.07
2018-07-07T02:56:02.180Z,5.63
2018-07-07T02:58:31.456Z,5.67
2018-07-07T03:01:00.782Z,6.03
2018-07-07T03:03:29.996Z,5.37
2018-07-07T03:05:59.252Z,5.53
2018-07-07T03:08:28.478Z,5.97
2018-07-07T03:10:57.861Z,5.03
2018-07-07T03:13:27.157Z,5.80
2018-07-07T03:15:56.416Z,5.50
2018-07-07T03:18:25.679Z,5.67
2018-07-07T03:20:54.989Z,5.10
2018-07-07T03:23:24.240Z,5.07
2018-07-07T03:25:52.976Z,4.80
2018-07-07T03:28:22.202Z,5.70
2018-07-07T03:30:51.472Z,4.77
2018-07-07T03:33:20.697Z,5.57
2018-07-07T03:35:49.996Z,5.43
2018-07-07T03:38:19.236Z,5.27
2018-07-07T03:40:48.639Z,5.60
2018-07-07T03:43:17.877Z,5.77
2018-07-07T03:45:47.212Z,6.07
2018-07-07T03:48:15.987Z,5.80
2018-07-07T03:50:45.509Z,5.60
2018-07-07T03:53:14.845Z,5.60
2018-07-07T03:55:44.447Z,5.60
2018-07-07T03:58:13.795Z,5.57
2018-07-07T04:00:43.305Z,5.23
2018-07-07T04:03:12.665Z,5.33
2018-07-07T04:05:41.996Z,4.97
2018-07-07T04:08:11.383Z,5.00
2018-07-07T04:10:40.712Z,5.10
2018-07-07T04:13:10.125Z,5.07
2018-07-07T04:15:38.878Z,5.03
2018-07-07T04:18:08.374Z,4.93
2018-07-07T04:20:37.702Z,4.77
2018-07-07T04:23:07.488Z,5.13
2018-07-07T04:25:36.861Z,5.23
2018-07-07T04:28:05.694Z,5.00
2018-07-07T04:30:35.128Z,4.70
2018-07-07T04:33:04.496Z,4.67
2018-07-07T04:35:33.844Z,4.73
2018-07-07T04:38:03.237Z,4.97
2018-07-07T04:40:32.640Z,4.90
2018-07-07T04:43:02.144Z,4.40
2018-07-07T04:45:31.510Z,4.30
2018-07-07T04:48:00.816Z,4.70
2018-07-07T04:50:30.233Z,4.67
2018-07-07T04:52:59.549Z,4.73
2018-07-07T04:55:28.319Z,4.53
2018-07-07T04:57:57.673Z,4.77
2018-07-07T05:00:27.132Z,4.80
2018-07-07T05:02:56.563Z,4.90
2018-07-07T05:05:25.311Z,5.00
2018-07-07T05:07:54.635Z,4.90
2018-07-07T05:10:23.522Z,4.87
2018-07-07T05:12:53.530Z,4.50
2018-07-07T05:15:22.905Z,4.97
2018-07-07T05:17:52.248Z,5.07
2018-07-07T05:20:21.593Z,4.90
2018-07-07T05:22:51.060Z,4.93
2018-07-07T05:25:20.347Z,5.13
2018-07-07T05:27:49.688Z,4.83
2018-07-07T05:30:18.989Z,4.50
2018-07-07T05:32:48.356Z,4.97
2018-07-07T05:35:17.802Z,5.27
2018-07-07T05:37:47.260Z,4.83
2018-07-07T05:40:16.620Z,4.20
2018-07-07T05:42:46.033Z,5.00
2018-07-07T05:45:15.404Z,4.63
2018-07-07T05:47:44.776Z,5.20
2018-07-07T05:50:13.558Z,5.33
2018-07-07T05:52:43.004Z,5.07
2018-07-07T05:55:12.514Z,5.10
2018-07-07T05:57:41.860Z,5.03
2018-07-07T06:00:11.415Z,4.90
2018-07-07T06:02:40.876Z,5.00
2018-07-07T06:05:10.313Z,4.70
2018-07-07T06:07:39.857Z,5.00
2018-07-07T06:10:09.414Z,4.60
2018-07-07T06:12:38.811Z,4.50
2018-07-07T06:15:08.837Z,5.10
2018-07-07T06:17:38.227Z,4.43
2018-07-07T06:20:07.712Z,4.50
2018-07-07T06:22:37.067Z,4.80
2018-07-07T06:25:06.591Z,4.50
2018-07-07T06:27:36.035Z,4.60
2018-07-07T06:30:05.590Z,4.57
2018-07-07T06:32:35.055Z,4.83
2018-07-07T06:35:04.461Z,4.53
2018-07-07T06:37:34.213Z,4.57
2018-07-07T06:40:04.020Z,4.57
2018-07-07T06:42:33.554Z,5.07
2018-07-07T06:45:02.955Z,4.23
2018-07-07T06:47:32.320Z,4.97
2018-07-07T06:50:01.684Z,4.47
2018-07-07T06:52:31.164Z,4.13
2018-07-07T06:55:00.488Z,4.13
2018-07-07T06:57:29.790Z,4.23
2018-07-07T06:59:59.331Z,4.30
2018-07-07T07:02:28.745Z,4.30
2018-07-07T07:04:58.213Z,4.23
2018-07-07T07:07:27.645Z,4.30
2018-07-07T07:09:56.995Z,3.90
2018-07-07T07:12:26.415Z,4.37
2018-07-07T07:14:55.768Z,4.37
2018-07-07T07:17:25.149Z,3.80
2018-07-07T07:19:54.597Z,4.10
2018-07-07T07:22:24.115Z,4.20
2018-07-07T07:24:53.496Z,4.43
2018-07-07T07:27:22.891Z,4.17
2018-07-07T07:29:52.303Z,3.70
2018-07-07T07:32:21.818Z,3.87
2018-07-07T07:34:51.272Z,3.80
2018-07-07T07:37:20.659Z,3.90
2018-07-07T07:39:50.025Z,3.43
2018-07-07T07:42:19.804Z,3.80
2018-07-07T07:44:49.223Z,4.43
2018-07-07T07:47:18.580Z,3.90
2018-07-07T07:49:47.987Z,3.67
2018-07-07T07:52:17.440Z,3.87
2018-07-07T07:54:46.874Z,4.67
2018-07-07T07:57:15.638Z,5.20
2018-07-07T07:59:45.077Z,4.73
2018-07-07T08:02:14.533Z,5.20
2018-07-07T08:04:43.933Z,4.10
2018-07-07T08:07:13.315Z,4.00
2018-07-07T08:09:42.664Z,4.30
2018-07-07T08:12:12.196Z,4.23
2018-07-07T08:14:41.556Z,4.60
2018-07-07T08:17:10.957Z,4.90
2018-07-07T08:19:40.332Z,4.50
2018-07-07T08:22:09.741Z,4.63
2018-07-07T08:24:39.168Z,4.30
2018-07-07T08:27:08.523Z,4.70
2018-07-07T08:29:37.305Z,4.30
2018-07-07T08:32:06.756Z,4.80
2018-07-07T08:34:36.235Z,4.50
2018-07-07T08:37:05.840Z,3.83
2018-07-07T08:39:35.223Z,4.50
2018-07-07T08:42:04.746Z,4.20
2018-07-07T08:44:34.151Z,3.90
2018-07-07T08:47:03.680Z,4.07
2018-07-07T08:49:33.041Z,3.70
2018-07-07T08:52:02.474Z,3.73
2018-07-07T08:54:32.136Z,4.07
2018-07-07T08:57:01.536Z,3.80
2018-07-07T08:59:30.404Z,3.47
2018-07-07T09:01:59.789Z,3.77
2018-07-07T09:04:30.841Z,3.90
2018-07-07T09:07:00.264Z,3.77
2018-07-07T09:09:29.742Z,3.87
2018-07-07T09:11:59.184Z,4.50
2018-07-07T09:14:28.656Z,3.90
2018-07-07T09:16:58.148Z,3.80
2018-07-07T09:19:27.491Z,3.80
2018-07-07T09:21:58.074Z,3.57
2018-07-07T09:24:28.093Z,3.60
2018-07-07T09:27:00.213Z,3.50
2018-07-07T09:29:31.438Z,3.67
2018-07-07T09:32:01.035Z,3.67
2018-07-07T09:34:33.132Z,4.37
2018-07-07T09:37:04.725Z,3.67
2018-07-07T09:39:37.988Z,3.63
2018-07-07T09:42:11.695Z,3.67
2018-07-07T09:44:43.684Z,3.47
2018-07-07T09:47:14.218Z,3.30
2018-07-07T09:49:48.406Z,2.80
2018-07-07T09:52:21.397Z,3.13
2018-07-07T09:54:52.250Z,3.10
2018-07-07T09:57:26.244Z,2.67
2018-07-07T09:59:55.765Z,3.00
2018-07-07T10:02:25.219Z,2.87
2018-07-07T10:04:56.800Z,2.90
2018-07-07T10:07:26.454Z,2.80
2018-07-07T10:09:55.863Z,2.93
2018-07-07T10:12:25.275Z,2.80
2018-07-07T10:14:54.652Z,2.98
2018-07-07T10:17:24.038Z,2.80
2018-07-07T10:19:53.591Z,2.70
2018-07-07T10:22:22.931Z,2.65
2018-07-07T10:24:52.284Z,2.63
2018-07-07T10:27:21.680Z,2.92
2018-07-07T10:29:51.151Z,2.85
2018-07-07T10:32:20.576Z,2.67
2018-07-07T10:34:50.009Z,2.67
2018-07-07T10:37:19.299Z,3.00
2018-07-07T10:39:48.678Z,2.62
2018-07-07T10:42:18.219Z,2.75
2018-07-07T10:44:47.604Z,2.70
2018-07-07T10:47:16.977Z,2.70
2018-07-07T10:49:46.301Z,2.70
2018-07-07T10:52:15.760Z,2.70
2018-07-07T10:54:45.203Z,2.27
2018-07-07T10:57:14.537Z,2.55
2018-07-07T10:59:43.964Z,3.05
2018-07-07T11:02:13.492Z,2.50
2018-07-07T11:04:42.845Z,2.45
2018-07-07T11:07:12.177Z,2.60
2018-07-07T11:09:40.991Z,2.72
2018-07-07T11:12:10.563Z,2.67
2018-07-07T11:14:39.946Z,2.45
2018-07-07T11:17:10.904Z,2.80
2018-07-07T11:19:42.854Z,2.75
2018-07-07T11:22:13.663Z,2.58
2018-07-07T11:24:44.971Z,2.20
2018-07-07T11:27:16.115Z,2.58
2018-07-07T11:29:46.727Z,2.35
2018-07-07T11:32:17.857Z,2.30
2018-07-07T11:34:49.044Z,2.40
2018-07-07T11:37:20.005Z,2.37
2018-07-07T11:39:49.536Z,2.45
2018-07-07T11:42:19.039Z,2.27
2018-07-07T11:44:48.442Z,2.40
2018-07-07T11:47:17.804Z,2.37
2018-07-07T11:49:47.220Z,2.20
2018-07-07T11:52:16.715Z,2.33
2018-07-07T11:54:46.191Z,2.27
2018-07-07T11:57:15.535Z,2.22
2018-07-07T11:59:44.972Z,2.25
2018-07-07T12:02:14.541Z,2.20
2018-07-07T12:04:44.060Z,2.37
2018-07-07T12:07:13.408Z,2.17
2018-07-07T12:09:42.768Z,2.30
2018-07-07T12:12:12.252Z,2.42
2018-07-07T12:14:41.627Z,2.40
2018-07-07T12:17:11.110Z,2.40
2018-07-07T12:19:40.476Z,2.20
2018-07-07T12:22:09.904Z,2.20
2018-07-07T12:24:39.263Z,2.33
2018-07-07T12:27:08.706Z,2.20
2018-07-07T12:29:38.053Z,2.25
2018-07-07T12:32:07.668Z,2.35
2018-07-07T12:34:37.035Z,2.27
2018-07-07T12:37:06.381Z,2.00
2018-07-07T12:39:35.780Z,2.25
2018-07-07T12:42:05.237Z,2.47
2018-07-07T12:44:34.566Z,2.33
2018-07-07T12:47:03.921Z,2.12
2018-07-07T12:49:33.357Z,2.30
2018-07-07T12:52:02.878Z,1.90
2018-07-07T12:54:32.456Z,1.85
2018-07-07T12:57:01.827Z,2.00
2018-07-07T12:59:31.219Z,2.08
2018-07-07T13:02:00.631Z,2.00
2018-07-07T13:04:29.984Z,1.90
2018-07-07T13:06:59.351Z,2.10
2018-07-07T13:09:28.811Z,1.90
2018-07-07T13:11:58.283Z,2.03
2018-07-07T13:14:27.723Z,2.25
2018-07-07T13:16:57.184Z,1.92
2018-07-07T13:19:26.601Z,1.90
2018-07-07T13:21:56.066Z,1.95
2018-07-07T13:24:25.366Z,2.00
2018-07-07T13:26:54.861Z,1.82
2018-07-07T13:29:24.600Z,1.95
2018-07-07T13:31:54.206Z,1.80
2018-07-07T13:34:23.636Z,1.70
2018-07-07T13:36:52.989Z,1.90
2018-07-07T13:39:22.337Z,1.72
2018-07-07T13:41:51.911Z,1.65
2018-07-07T13:44:21.259Z,1.77
2018-07-07T13:46:50.716Z,1.60
2018-07-07T13:49:20.144Z,1.80
2018-07-07T13:51:49.540Z,1.70
2018-07-07T13:54:19.024Z,1.80
2018-07-07T13:56:48.436Z,1.70
2018-07-07T13:59:17.808Z,1.60
2018-07-07T14:01:47.427Z,1.50
2018-07-07T14:04:16.908Z,1.52
2018-07-07T14:06:46.280Z,1.37
2018-07-07T14:09:15.660Z,1.40
2018-07-07T14:11:45.207Z,1.55
2018-07-07T14:14:14.556Z,1.65
2018-07-07T14:16:43.961Z,1.60
2018-07-07T14:19:13.577Z,1.65
2018-07-07T14:21:42.924Z,1.50
2018-07-07T14:24:12.324Z,1.52
2018-07-07T14:26:41.813Z,1.77
2018-07-07T14:29:11.197Z,1.80
2018-07-07T14:31:40.871Z,1.72
2018-07-07T14:34:10.247Z,1.50
2018-07-07T14:36:39.663Z,1.32
2018-07-07T14:39:09.088Z,1.60
2018-07-07T14:41:38.484Z,1.40
2018-07-07T14:44:07.917Z,1.40
2018-07-07T14:46:37.453Z,1.47
2018-07-07T14:49:07.003Z,1.60
2018-07-07T14:51:36.462Z,1.80
2018-07-07T14:54:05.827Z,1.70
2018-07-07T14:56:35.201Z,1.72
2018-07-07T14:59:04.651Z,1.60
2018-07-07T15:01:34.189Z,1.67
2018-07-07T15:04:04.222Z,1.77
2018-07-07T15:06:33.636Z,1.60
2018-07-07T15:09:03.167Z,2.05
2018-07-07T15:11:32.650Z,2.17
2018-07-07T15:14:02.113Z,1.80
2018-07-07T15:16:31.489Z,2.10
2018-07-07T15:19:00.948Z,2.12
2018-07-07T15:21:30.332Z,2.12
2018-07-07T15:23:59.728Z,2.08
2018-07-07T15:26:29.118Z,1.85
2018-07-07T15:28:58.718Z,2.00
2018-07-07T15:31:28.324Z,2.05
2018-07-07T15:33:57.804Z,2.10
2018-07-07T15:36:27.188Z,2.37
2018-07-07T15:38:57.003Z,2.20
2018-07-07T15:41:26.394Z,2.12
2018-07-07T15:43:55.755Z,2.30
2018-07-07T15:46:25.169Z,2.00
2018-07-07T15:48:54.508Z,1.90
2018-07-07T15:51:23.891Z,1.98
2018-07-07T15:53:53.230Z,1.80
2018-07-07T15:56:22.560Z,1.80
2018-07-07T15:58:52.112Z,1.70
2018-07-07T16:01:21.546Z,1.75
2018-07-07T16:03:50.975Z,2.00
2018-07-07T16:06:20.464Z,1.77
2018-07-07T16:08:49.958Z,1.90
2018-07-07T16:11:19.383Z,2.12
2018-07-07T16:13:48.768Z,1.90
2018-07-07T16:16:18.223Z,2.17
2018-07-07T16:18:47.689Z,1.87
2018-07-07T16:21:16.847Z,1.90
2018-07-07T16:23:46.272Z,1.80
2018-07-07T16:26:15.649Z,1.70
2018-07-07T16:28:45.057Z,1.85
2018-07-07T16:31:14.553Z,1.90
2018-07-07T16:33:43.955Z,2.15
2018-07-07T16:36:13.460Z,2.33
2018-07-07T16:38:42.913Z,2.17
2018-07-07T16:41:12.507Z,2.30
2018-07-07T16:43:42.794Z,2.50
2018-07-07T16:46:12.505Z,2.75
2018-07-07T16:48:41.804Z,2.85
2018-07-07T16:51:13.596Z,2.95
2018-07-07T16:53:43.071Z,2.87
2018-07-07T16:56:12.580Z,2.80
2018-07-07T16:58:42.084Z,2.70
2018-07-07T17:01:11.561Z,2.65
2018-07-07T17:03:41.039Z,2.55
2018-07-07T17:06:10.573Z,2.65
2018-07-07T17:08:40.848Z,2.62
2018-07-07T17:11:10.967Z,3.00
2018-07-07T17:13:41.276Z,2.50
2018-07-07T17:16:11.182Z,2.83
2018-07-07T17:18:40.890Z,2.80
2018-07-07T17:21:10.402Z,2.75
2018-07-07T17:23:39.927Z,2.75
2018-07-07T17:26:09.635Z,2.65
2018-07-07T17:28:39.220Z,3.13
2018-07-07T17:31:08.656Z,2.90
2018-07-07T17:33:37.510Z,2.63
2018-07-07T17:36:06.948Z,2.30
2018-07-07T17:38:36.396Z,2.60
2018-07-07T17:41:05.865Z,2.40
2018-07-07T17:43:35.423Z,2.57
2018-07-07T17:46:05.067Z,2.90
2018-07-07T17:48:35.050Z,2.60
2018-07-07T17:51:04.672Z,2.60
2018-07-07T17:53:34.216Z,2.60
2018-07-07T17:56:03.709Z,2.50
2018-07-07T17:58:33.270Z,2.63
2018-07-07T18:01:02.680Z,2.50
2018-07-07T18:03:32.436Z,2.47
2018-07-07T18:06:01.728Z,2.40
2018-07-07T18:08:31.104Z,2.50
2018-07-07T18:11:00.435Z,2.47
2018-07-07T18:13:29.744Z,2.07
2018-07-07T18:15:58.506Z,2.37
2018-07-07T18:18:27.912Z,2.40
2018-07-07T18:20:57.607Z,2.57
2018-07-07T18:23:27.098Z,2.50
2018-07-07T18:25:56.517Z,2.10
2018-07-07T18:28:25.881Z,2.50
2018-07-07T18:30:55.336Z,2.33
2018-07-07T18:33:24.724Z,2.13
2018-07-07T18:35:54.156Z,2.30
2018-07-07T18:38:23.600Z,1.87
2018-07-07T18:40:52.960Z,2.00
2018-07-07T18:43:22.427Z,2.23
2018-07-07T18:45:51.765Z,2.00
2018-07-07T18:48:21.536Z,1.80
2018-07-07T18:50:50.960Z,2.10
2018-07-07T18:53:20.344Z,1.90
2018-07-07T18:55:49.885Z,1.80
2018-07-07T18:58:19.399Z,1.90
2018-07-07T19:00:50.520Z,1.83
2018-07-07T19:03:19.896Z,1.90
2018-07-07T19:05:49.361Z,1.97
2018-07-07T19:08:18.948Z,1.73
2018-07-07T19:10:47.719Z,1.67
2018-07-07T19:13:17.044Z,2.00
2018-07-07T19:15:47.527Z,1.63
2018-07-07T19:18:17.357Z,2.10
2018-07-07T19:21:52.397Z,2.00
2018-07-07T19:24:27.207Z,1.67
2018-07-07T19:26:57.711Z,1.97
2018-07-07T19:29:28.514Z,1.80
2018-07-07T19:33:06.243Z,1.97
2018-07-07T19:35:48.010Z,1.90
2018-07-07T19:38:17.556Z,1.70
2018-07-07T19:40:47.674Z,1.53
2018-07-07T19:43:17.919Z,1.70
2018-07-07T19:45:47.483Z,1.77
2018-07-07T19:48:17.584Z,2.17
2018-07-07T19:50:47.741Z,2.13
2018-07-07T19:53:17.073Z,5.87
2018-07-07T19:55:47.458Z,3.40
2018-07-07T19:58:17.664Z,2.00
2018-07-07T20:00:48.534Z,2.20
2018-07-07T20:03:17.876Z,2.20
2018-07-07T20:05:47.240Z,1.60
2018-07-07T20:08:16.914Z,2.30
2018-07-07T20:10:46.340Z,2.70
2018-07-07T20:13:15.916Z,1.73
2018-07-07T20:16:18.690Z,1.77
2018-07-07T20:19:04.123Z,1.70
2018-07-07T20:21:49.802Z,1.80
2018-07-07T20:24:21.640Z,1.80
2018-07-07T20:26:56.054Z,1.67
2018-07-07T20:29:25.457Z,2.00
2018-07-07T20:31:55.612Z,3.70
2018-07-07T20:34:26.526Z,4.07
2018-07-07T20:36:56.131Z,2.50
2018-07-07T20:39:25.808Z,2.40
2018-07-07T20:41:56.037Z,2.30
2018-07-07T20:44:25.971Z,2.10
2018-07-07T20:46:55.485Z,2.63
2018-07-07T20:49:25.127Z,2.20
2018-07-07T20:51:54.435Z,2.27
2018-07-07T20:54:23.655Z,1.93
2018-07-07T20:56:53.196Z,2.40
2018-07-07T20:59:22.819Z,2.20
2018-07-07T21:01:52.232Z,2.10
2018-07-07T21:04:21.449Z,2.10
2018-07-07T21:06:50.676Z,2.00
2018-07-07T21:09:19.948Z,2.30
2018-07-07T21:11:49.247Z,2.10
2018-07-07T21:14:18.508Z,2.00
2018-07-07T21:16:47.750Z,2.40
2018-07-07T21:19:17.047Z,2.13
2018-07-07T21:21:46.358Z,2.00
2018-07-07T21:24:15.720Z,2.10
2018-07-07T21:26:44.953Z,2.13
2018-07-07T21:29:14.210Z,2.10
2018-07-07T21:31:43.580Z,2.30
2018-07-07T21:34:12.853Z,2.30
2018-07-07T21:36:42.152Z,2.43
2018-07-07T21:39:11.351Z,2.30
2018-07-07T21:41:40.640Z,2.30
2018-07-07T21:44:10.473Z,2.20
2018-07-07T21:46:39.740Z,2.33
2018-07-07T21:49:08.984Z,2.20
2018-07-07T21:51:38.227Z,1.80
2018-07-07T21:54:07.533Z,2.00
2018-07-07T21:56:36.792Z,2.40
2018-07-07T21:59:11.247Z,2.30
2018-07-07T22:01:55.807Z,2.43
2018-07-07T22:04:30.913Z,1.90
2018-07-07T22:07:06.172Z,2.23
2018-07-07T22:09:36.336Z,2.23
2018-07-07T22:12:05.745Z,2.33
2018-07-07T22:14:35.073Z,2.53
2018-07-07T22:17:04.385Z,2.30
2018-07-07T22:19:33.640Z,2.80
2018-07-07T22:22:11.135Z,2.47
2018-07-07T22:24:41.665Z,2.67
2018-07-07T22:27:12.189Z,2.33
2018-07-07T22:29:41.460Z,2.43
2018-07-07T22:32:15.708Z,2.40
2018-07-07T22:34:44.979Z,2.20
2018-07-07T22:37:14.280Z,2.03
2018-07-07T22:39:44.323Z,2.40
2018-07-07T22:42:14.856Z,2.23
2018-07-07T22:44:45.180Z,2.23
2018-07-07T22:47:14.404Z,2.60
2018-07-07T22:49:43.647Z,2.20
2018-07-07T22:52:13.173Z,2.67
2018-07-07T22:54:42.405Z,2.10
2018-07-07T22:57:11.703Z,2.27
2018-07-07T22:59:40.952Z,2.40
2018-07-07T23:02:10.303Z,2.10
2018-07-07T23:04:39.556Z,2.43
2018-07-07T23:07:08.906Z,2.40
2018-07-07T23:09:38.189Z,2.60
2018-07-07T23:12:07.513Z,2.30
2018-07-07T23:14:36.778Z,2.50
2018-07-07T23:17:06.008Z,2.37
2018-07-07T23:19:35.252Z,2.70
2018-07-07T23:22:04.682Z,2.50
2018-07-07T23:24:33.988Z,2.60
2018-07-07T23:27:03.210Z,2.60
2018-07-07T23:29:32.453Z,2.70
2018-07-07T23:32:01.813Z,2.30
2018-07-07T23:34:31.091Z,3.10
2018-07-07T23:37:00.327Z,2.70
2018-07-07T23:39:29.610Z,2.37
2018-07-07T23:41:58.888Z,2.50
2018-07-07T23:44:28.154Z,2.90
2018-07-07T23:46:57.403Z,2.73
2018-07-07T23:49:26.654Z,2.70
2018-07-07T23:51:55.987Z,2.73
2018-07-07T23:54:25.221Z,3.00
2018-07-07T23:56:54.575Z,2.83
2018-07-07T23:59:23.853Z,2.70
